Time;durP1;ratioP1;P1;durP2;ratioP2;P2;SDS_P1;SDS_P2;PMS_P1;PMS_P2;Temp;Humidity;BMP_temperature;BMP_pressure;BME280_temperature;BME280_humidity;BME280_pressure;Samples;Min_cycle;Max_cycle;Signal;HPM_P1;HPM_P2
2024/04/04 00:00:00;;;;;;;;;;;22.00;46.00;;;;;;2892977;19;4685;-31
2024/04/04 00:01:01;;;;;;;;;;;22.00;46.00;;;;;;2892374;19;21007;-32
2024/04/04 00:02:02;;;;;;;;;;;22.00;46.00;;;;;;2893060;19;4749;-33
2024/04/04 00:03:03;;;;;;;;;;;22.00;46.00;;;;;;2985654;19;4567;-32
2024/04/04 00:04:04;;;;;;;;;;;22.00;46.70;;;;;;3050614;19;4665;-30
2024/04/04 00:05:04;;;;;;;;;;;22.00;46.00;;;;;;3037386;19;4891;-24
2024/04/04 00:06:05;;;;;;;;;;;22.00;46.00;;;;;;3049080;19;4641;-24
2024/04/04 00:07:06;;;;;;;;;;;22.00;46.00;;;;;;3050799;19;4991;-24
2024/04/04 00:08:06;;;;;;;;;;;22.00;46.00;;;;;;3028442;19;20582;-24
2024/04/04 00:09:07;;;;;;;;;;;22.00;46.00;;;;;;3051386;19;4715;-24
2024/04/04 00:10:07;;;;;;;;;;;22.00;46.00;;;;;;3051194;19;4722;-24
2024/04/04 00:11:11;;;;;;;;;;;22.00;46.00;;;;;;3030065;19;4597;-24
2024/04/04 00:12:12;;;;;;;;;;;22.00;45.90;;;;;;3051613;19;4662;-24
2024/04/04 00:13:12;;;;;;;;;;;22.00;46.60;;;;;;3030176;19;4536;-23
2024/04/04 00:14:13;;;;;;;;;;;22.00;45.90;;;;;;3051440;19;4875;-23
2024/04/04 00:15:13;;;;;;;;;;;22.00;46.00;;;;;;3052091;19;4846;-24
2024/04/04 00:16:14;;;;;;;;;;;22.00;46.00;;;;;;3030912;19;4543;-24
2024/04/04 00:17:15;;;;;;;;;;;21.90;45.90;;;;;;3052127;19;4725;-24
2024/04/04 00:18:15;;;;;;;;;;;22.00;45.90;;;;;;3052846;19;4778;-25
2024/04/04 00:19:16;;;;;;;;;;;21.90;45.90;;;;;;3030739;19;4668;-25
2024/04/04 00:20:17;;;;;;;;;;;22.00;45.90;;;;;;3051929;19;4839;-25
2024/04/04 00:21:17;;;;;;;;;;;21.90;45.90;;;;;;3030579;19;4521;-24
2024/04/04 00:22:18;;;;;;;;;;;21.90;45.80;;;;;;3052013;19;4663;-24
2024/04/04 00:23:18;;;;;;;;;;;21.90;45.80;;;;;;3052324;19;4603;-23
2024/04/04 00:24:19;;;;;;;;;;;21.90;45.90;;;;;;3030985;19;4555;-23
2024/04/04 00:25:20;;;;;;;;;;;21.90;45.90;;;;;;3052447;19;4652;-26
2024/04/04 00:26:20;;;;;;;;;;;21.90;45.80;;;;;;3052477;19;4755;-22
2024/04/04 00:27:21;;;;;;;;;;;21.90;45.80;;;;;;3030586;19;4588;-24
2024/04/04 00:28:21;;;;;;;;;;;21.90;45.80;;;;;;3052216;19;4677;-24
2024/04/04 00:29:22;;;;;;;;;;;21.90;45.90;;;;;;3031281;19;4495;-24
2024/04/04 00:30:23;;;;;;;;;;;21.80;45.70;;;;;;3052104;19;4667;-24
2024/04/04 00:31:23;;;;;;;;;;;21.90;45.70;;;;;;3052354;19;4765;-23
2024/04/04 00:32:24;;;;;;;;;;;21.90;45.80;;;;;;3031094;19;4495;-24
2024/04/04 00:33:25;;;;;;;;;;;21.80;45.70;;;;;;3052221;19;4679;-23
2024/04/04 00:34:26;;;;;;;;;;;21.90;45.80;;;;;;3030468;19;4675;-24
2024/04/04 00:35:27;;;;;;;;;;;21.80;45.80;;;;;;3051670;19;4668;-24
2024/04/04 00:36:27;;;;;;;;;;;21.80;45.70;;;;;;3052089;19;4827;-24
2024/04/04 00:37:28;;;;;;;;;;;21.80;45.70;;;;;;3029900;19;4605;-24
2024/04/04 00:38:29;;;;;;;;;;;21.80;45.80;;;;;;3051497;19;4710;-24
2024/04/04 00:39:29;;;;;;;;;;;21.80;45.70;;;;;;3052148;19;5118;-23
2024/04/04 00:40:36;;;;;;;;;;;21.80;45.70;;;;;;3029407;19;4663;-24
2024/04/04 00:41:37;;;;;;;;;;;21.80;45.70;;;;;;3051913;19;4851;-23
2024/04/04 00:42:37;;;;;;;;;;;21.80;45.70;;;;;;3030001;19;4866;-23
2024/04/04 00:43:38;;;;;;;;;;;21.70;45.70;;;;;;3051315;19;4638;-23
2024/04/04 00:44:39;;;;;;;;;;;21.70;45.70;;;;;;3052609;19;4639;-25
2024/04/04 00:45:39;;;;;;;;;;;21.70;45.70;;;;;;3030835;19;4716;-24
2024/04/04 00:46:40;;;;;;;;;;;21.80;45.70;;;;;;3052371;19;4729;-23
2024/04/04 00:47:43;;;;;;;;;;;21.80;45.70;;;;;;3052420;19;4677;-23
2024/04/04 00:48:43;;;;;;;;;;;21.70;45.70;;;;;;3029050;19;4615;-25
2024/04/04 00:49:44;;;;;;;;;;;21.80;45.70;;;;;;3052352;19;4665;-24
2024/04/04 00:50:45;;;;;;;;;;;21.80;45.70;;;;;;3030156;19;4709;-24
2024/04/04 00:51:45;;;;;;;;;;;21.70;45.60;;;;;;3052209;19;4644;-26
2024/04/04 00:52:46;;;;;;;;;;;21.70;45.70;;;;;;3051685;19;4699;-23
2024/04/04 00:53:46;;;;;;;;;;;21.70;45.70;;;;;;3030169;19;4565;-23
2024/04/04 00:54:47;;;;;;;;;;;21.70;45.60;;;;;;3051823;19;4692;-32
2024/04/04 00:55:48;;;;;;;;;;;21.70;45.60;;;;;;3030575;19;4701;-35
2024/04/04 00:56:49;;;;;;;;;;;21.70;45.60;;;;;;3051542;19;4805;-30
2024/04/04 00:57:51;;;;;;;;;;;21.70;45.70;;;;;;3052390;19;4662;-32
2024/04/04 00:58:51;;;;;;;;;;;21.70;45.70;;;;;;3030380;19;4677;-35
2024/04/04 00:59:52;;;;;;;;;;;21.70;45.70;;;;;;3052123;19;4620;-34
2024/04/04 01:00:52;;;;;;;;;;;21.70;45.70;;;;;;3051724;19;4692;-30
2024/04/04 01:01:53;;;;;;;;;;;21.70;45.70;;;;;;3029668;19;4686;-30
2024/04/04 01:02:54;;;;;;;;;;;21.70;45.70;;;;;;3051559;19;4637;-32
2024/04/04 01:03:55;;;;;;;;;;;21.70;45.70;;;;;;3031078;19;4638;-32
2024/04/04 01:04:55;;;;;;;;;;;21.70;45.70;;;;;;3052032;19;4602;-33
2024/04/04 01:05:56;;;;;;;;;;;21.70;45.70;;;;;;3052164;19;4778;-34
2024/04/04 01:06:56;;;;;;;;;;;21.60;45.70;;;;;;3030710;19;4794;-30
2024/04/04 01:07:57;;;;;;;;;;;21.70;45.70;;;;;;3052174;19;4626;-35
2024/04/04 01:08:58;;;;;;;;;;;21.70;45.70;;;;;;3051859;19;4717;-33
2024/04/04 01:10:06;;;;;;;;;;;21.70;45.70;;;;;;3030371;19;4675;-32
2024/04/04 01:11:06;;;;;;;;;;;21.70;45.70;;;;;;3051311;19;4639;-32
2024/04/04 01:12:08;;;;;;;;;;;21.60;45.60;;;;;;3031206;19;4552;-33
2024/04/04 01:13:09;;;;;;;;;;;21.60;45.70;;;;;;3051947;19;4662;-34
2024/04/04 01:14:10;;;;;;;;;;;21.60;45.70;;;;;;3052059;19;4751;-31
2024/04/04 01:15:10;;;;;;;;;;;21.60;45.70;;;;;;3029543;19;4538;-32
2024/04/04 01:16:11;;;;;;;;;;;21.60;45.70;;;;;;3048860;19;4789;-30
2024/04/04 01:17:11;;;;;;;;;;;21.60;45.70;;;;;;3029513;19;4476;-31
2024/04/04 01:18:12;;;;;;;;;;;21.60;45.60;;;;;;3051823;19;1127;-30
2024/04/04 01:19:13;;;;;;;;;;;21.60;45.60;;;;;;3051521;19;4587;-33
2024/04/04 01:20:13;;;;;;;;;;;21.60;45.70;;;;;;3029219;19;4695;-32
2024/04/04 01:21:14;;;;;;;;;;;21.60;45.70;;;;;;3051714;19;4809;-32
2024/04/04 01:22:15;;;;;;;;;;;21.60;45.70;;;;;;3051703;19;4665;-30
2024/04/04 01:23:15;;;;;;;;;;;21.60;45.70;;;;;;3030259;19;4672;-30
2024/04/04 01:24:16;;;;;;;;;;;21.60;45.70;;;;;;3051782;19;4671;-30
2024/04/04 01:25:16;;;;;;;;;;;21.60;45.70;;;;;;3030391;19;4495;-24
2024/04/04 01:26:17;;;;;;;;;;;21.60;45.70;;;;;;3051209;19;4775;-24
2024/04/04 01:27:18;;;;;;;;;;;21.60;45.80;;;;;;3051555;19;4847;-25
2024/04/04 01:28:19;;;;;;;;;;;21.60;45.60;;;;;;3030225;19;4612;-25
2024/04/04 01:29:20;;;;;;;;;;;21.60;45.70;;;;;;3051703;19;4693;-27
2024/04/04 01:30:20;;;;;;;;;;;21.60;45.60;;;;;;3052146;19;4676;-23
2024/04/04 01:31:21;;;;;;;;;;;21.50;45.60;;;;;;3028530;19;4722;-23
2024/04/04 01:32:22;;;;;;;;;;;21.50;45.60;;;;;;3051908;19;4666;-23
2024/04/04 01:33:22;;;;;;;;;;;21.50;45.60;;;;;;3030227;19;4659;-25
2024/04/04 01:34:23;;;;;;;;;;;21.50;45.60;;;;;;3051137;19;4697;-25
2024/04/04 01:35:24;;;;;;;;;;;21.50;45.70;;;;;;3052076;19;4648;-24
2024/04/04 01:36:24;;;;;;;;;;;21.50;45.60;;;;;;3030080;19;4624;-24
2024/04/04 01:37:25;;;;;;;;;;;21.50;45.70;;;;;;3051856;19;4687;-23
2024/04/04 01:38:25;;;;;;;;;;;21.50;45.60;;;;;;3029370;19;4685;-24
2024/04/04 01:39:26;;;;;;;;;;;21.50;45.60;;;;;;3051007;19;4680;-24
2024/04/04 01:40:27;;;;;;;;;;;21.50;45.60;;;;;;3050951;19;4861;-24
2024/04/04 01:41:27;;;;;;;;;;;21.50;46.30;;;;;;3029090;19;4763;-24
2024/04/04 01:42:28;;;;;;;;;;;21.50;45.60;;;;;;3051261;19;4765;-25
2024/04/04 01:43:29;;;;;;;;;;;21.50;45.60;;;;;;3051208;19;4758;-23
2024/04/04 01:44:29;;;;;;;;;;;21.50;45.60;;;;;;3030457;19;4528;-23
2024/04/04 01:45:30;;;;;;;;;;;21.40;45.60;;;;;;3050479;19;4682;-23
2024/04/04 01:46:31;;;;;;;;;;;21.50;45.70;;;;;;3030062;19;4784;-24
2024/04/04 01:47:32;;;;;;;;;;;21.50;45.70;;;;;;3051390;19;4664;-23
2024/04/04 01:48:32;;;;;;;;;;;21.40;45.60;;;;;;3050451;19;4935;-25
2024/04/04 01:49:33;;;;;;;;;;;21.40;45.60;;;;;;3029473;19;4534;-23
2024/04/04 01:50:34;;;;;;;;;;;21.50;45.70;;;;;;3051626;19;4701;-24
2024/04/04 01:51:37;;;;;;;;;;;21.50;45.70;;;;;;3051211;19;4688;-24
2024/04/04 01:52:37;;;;;;;;;;;21.50;45.70;;;;;;3029901;19;4630;-24
2024/04/04 01:53:39;;;;;;;;;;;21.50;45.70;;;;;;3051058;19;4635;-23
2024/04/04 01:54:39;;;;;;;;;;;21.40;45.60;;;;;;3029883;19;4650;-24
2024/04/04 01:55:40;;;;;;;;;;;21.50;45.70;;;;;;3051047;19;4688;-25
2024/04/04 01:56:41;;;;;;;;;;;21.40;45.70;;;;;;3051744;19;4661;-23
2024/04/04 01:57:42;;;;;;;;;;;21.40;45.70;;;;;;3030273;19;4516;-24
2024/04/04 01:58:42;;;;;;;;;;;21.40;45.70;;;;;;3051541;19;4761;-23
2024/04/04 01:59:43;;;;;;;;;;;21.40;45.70;;;;;;3051455;19;4640;-25
2024/04/04 02:00:44;;;;;;;;;;;21.40;45.70;;;;;;3036804;19;4674;-24
2024/04/04 02:01:44;;;;;;;;;;;21.40;45.80;;;;;;3049517;19;4768;-24
2024/04/04 02:02:45;;;;;;;;;;;21.40;45.70;;;;;;3029245;19;4703;-24
2024/04/04 02:03:45;;;;;;;;;;;21.40;45.80;;;;;;3051038;19;4640;-23
2024/04/04 02:04:49;;;;;;;;;;;21.40;45.70;;;;;;3051293;19;4704;-26
2024/04/04 02:05:49;;;;;;;;;;;21.40;45.80;;;;;;3029241;19;4485;-33
2024/04/04 02:06:50;;;;;;;;;;;21.40;45.80;;;;;;3051226;19;4753;-32
2024/04/04 02:07:51;;;;;;;;;;;21.30;45.70;;;;;;3028500;19;4713;-32
2024/04/04 02:08:51;;;;;;;;;;;21.30;45.70;;;;;;3050680;19;4627;-31
2024/04/04 02:09:52;;;;;;;;;;;21.40;45.80;;;;;;3051214;19;4656;-31
2024/04/04 02:10:52;;;;;;;;;;;21.40;45.80;;;;;;3029331;19;4658;-35
2024/04/04 02:11:53;;;;;;;;;;;21.40;45.90;;;;;;3051129;19;4611;-31
2024/04/04 02:12:55;;;;;;;;;;;21.30;45.80;;;;;;3050460;19;4639;-33
2024/04/04 02:13:56;;;;;;;;;;;21.30;45.80;;;;;;3029411;19;4470;-33
2024/04/04 02:14:56;;;;;;;;;;;21.40;45.90;;;;;;3051200;19;4648;-32
2024/04/04 02:15:57;;;;;;;;;;;21.30;45.80;;;;;;3030078;19;4628;-32
2024/04/04 02:16:58;;;;;;;;;;;21.30;45.80;;;;;;3051074;19;4646;-31
2024/04/04 02:17:58;;;;;;;;;;;21.30;45.90;;;;;;3051321;19;4851;-32
2024/04/04 02:19:00;;;;;;;;;;;21.30;45.90;;;;;;3029341;19;4661;-30
2024/04/04 02:20:01;;;;;;;;;;;21.30;45.90;;;;;;3050189;19;4577;-34
2024/04/04 02:21:02;;;;;;;;;;;21.30;45.90;;;;;;3051989;19;4624;-34
2024/04/04 02:22:03;;;;;;;;;;;21.30;45.90;;;;;;3028577;19;4611;-34
2024/04/04 02:23:03;;;;;;;;;;;21.30;45.90;;;;;;3050830;19;4666;-32
2024/04/04 02:24:04;;;;;;;;;;;21.30;45.90;;;;;;3028824;19;4597;-32
2024/04/04 02:25:06;;;;;;;;;;;21.30;45.80;;;;;;3050064;19;4716;-34
2024/04/04 02:26:06;;;;;;;;;;;21.30;45.90;;;;;;3050518;19;4626;-30
2024/04/04 02:27:07;;;;;;;;;;;21.30;45.80;;;;;;3028697;19;4756;-30
2024/04/04 02:28:09;;;;;;;;;;;21.30;45.90;;;;;;3053905;19;4744;-32
2024/04/04 02:29:10;;;;;;;;;;;21.30;45.90;;;;;;3031252;19;4452;-32
2024/04/04 02:30:12;;;;;;;;;;;21.20;45.80;;;;;;3054033;19;1123;-33
2024/04/04 02:31:12;;;;;;;;;;;21.20;45.90;;;;;;3052897;19;4722;-35
2024/04/04 02:32:13;;;;;;;;;;;21.30;45.90;;;;;;3031088;19;4591;-32
2024/04/04 02:33:14;;;;;;;;;;;21.30;46.00;;;;;;3054048;19;4699;-33
2024/04/04 02:34:14;;;;;;;;;;;21.30;45.90;;;;;;3054638;19;4756;-31
2024/04/04 02:35:15;;;;;;;;;;;21.30;46.00;;;;;;3032570;19;4629;-30
2024/04/04 02:36:16;;;;;;;;;;;21.30;45.80;;;;;;3054094;19;4653;-33
2024/04/04 02:37:17;;;;;;;;;;;21.50;45.80;;;;;;3030486;19;4474;-32
2024/04/04 02:38:17;;;;;;;;;;;21.50;45.70;;;;;;3053960;19;4693;-34
2024/04/04 02:39:19;;;;;;;;;;;21.60;45.60;;;;;;3053741;19;4689;-32
2024/04/04 02:40:19;;;;;;;;;;;21.70;45.50;;;;;;3032189;19;4743;-30
2024/04/04 02:41:20;;;;;;;;;;;21.70;45.30;;;;;;3053132;19;4754;-33
2024/04/04 02:42:21;;;;;;;;;;;21.80;45.30;;;;;;3054680;19;4639;-33
2024/04/04 02:43:21;;;;;;;;;;;21.80;45.10;;;;;;3032449;19;4606;-32
2024/04/04 02:44:22;;;;;;;;;;;21.90;45.00;;;;;;3053538;19;4960;-31
2024/04/04 02:45:23;;;;;;;;;;;21.90;45.00;;;;;;3032343;19;4569;-31
2024/04/04 02:46:23;;;;;;;;;;;21.90;44.80;;;;;;3054146;19;4768;-31
2024/04/04 02:47:24;;;;;;;;;;;21.90;44.80;;;;;;3053765;19;4713;-31
2024/04/04 02:48:24;;;;;;;;;;;21.90;44.80;;;;;;3032439;19;4592;-33
2024/04/04 02:49:25;;;;;;;;;;;21.90;44.70;;;;;;3054265;19;4701;-33
2024/04/04 02:50:27;;;;;;;;;;;21.90;44.70;;;;;;3032955;19;4670;-30
2024/04/04 02:51:28;;;;;;;;;;;22.00;44.70;;;;;;3054718;19;4637;-32
2024/04/04 02:52:29;;;;;;;;;;;22.00;44.70;;;;;;3054242;19;4709;-31
2024/04/04 02:53:29;;;;;;;;;;;22.00;44.70;;;;;;3032517;19;4482;-32
2024/04/04 02:54:30;;;;;;;;;;;22.10;44.60;;;;;;3054122;19;4629;-34
2024/04/04 02:55:34;;;;;;;;;;;22.10;44.50;;;;;;3054648;19;4767;-23
2024/04/04 02:56:34;;;;;;;;;;;22.50;44.60;;;;;;3032680;19;4601;-23
2024/04/04 02:57:38;;;;;;;;;;;22.10;44.30;;;;;;3054208;19;4705;-24
2024/04/04 02:58:38;;;;;;;;;;;22.20;44.30;;;;;;3033229;19;4770;-24
2024/04/04 02:59:39;;;;;;;;;;;22.20;44.30;;;;;;3054133;19;4710;-24
2024/04/04 03:00:39;;;;;;;;;;;22.20;44.30;;;;;;3054215;19;4766;-24
2024/04/04 03:01:40;;;;;;;;;;;22.20;44.30;;;;;;3047056;19;5710;-24
2024/04/04 03:02:41;;;;;;;;;;;22.20;44.40;;;;;;3054365;19;4671;-24
2024/04/04 03:03:43;;;;;;;;;;;22.20;44.30;;;;;;3054186;19;4957;-23
2024/04/04 03:04:44;;;;;;;;;;;22.20;44.30;;;;;;3032639;19;4732;-23
2024/04/04 03:05:45;;;;;;;;;;;22.20;44.40;;;;;;3053806;19;4693;-23
2024/04/04 03:06:46;;;;;;;;;;;22.10;44.30;;;;;;3032193;19;4780;-23
2024/04/04 03:07:48;;;;;;;;;;;22.20;44.40;;;;;;3054255;19;4887;-25
2024/04/04 03:08:49;;;;;;;;;;;22.20;44.40;;;;;;3054379;19;4652;-23
2024/04/04 03:09:50;;;;;;;;;;;22.10;44.30;;;;;;3032111;19;4493;-24
2024/04/04 03:10:50;;;;;;;;;;;22.10;44.30;;;;;;3053819;19;4762;-23
2024/04/04 03:11:51;;;;;;;;;;;22.10;44.30;;;;;;3032296;19;4629;-26
2024/04/04 03:12:52;;;;;;;;;;;22.10;44.30;;;;;;3053271;19;4711;-24
2024/04/04 03:13:53;;;;;;;;;;;22.10;44.40;;;;;;3053619;19;4625;-25
2024/04/04 03:14:53;;;;;;;;;;;22.10;44.40;;;;;;3032534;19;4646;-23
2024/04/04 03:15:57;;;;;;;;;;;22.10;44.50;;;;;;3054106;19;5021;-24
2024/04/04 03:16:57;;;;;;;;;;;22.10;44.50;;;;;;3054379;19;4629;-23
2024/04/04 03:17:58;;;;;;;;;;;22.10;44.50;;;;;;3032288;19;4527;-23
2024/04/04 03:18:58;;;;;;;;;;;22.10;44.50;;;;;;3053941;19;4702;-22
2024/04/04 03:19:59;;;;;;;;;;;22.10;44.50;;;;;;3032553;19;4706;-24
2024/04/04 03:21:00;;;;;;;;;;;22.10;44.50;;;;;;3053785;19;4572;-23
2024/04/04 03:22:00;;;;;;;;;;;22.10;44.60;;;;;;3054075;19;4586;-24
2024/04/04 03:23:01;;;;;;;;;;;22.10;44.60;;;;;;3032742;19;4646;-25
2024/04/04 03:24:02;;;;;;;;;;;22.10;44.60;;;;;;3053303;19;4628;-23
2024/04/04 03:25:02;;;;;;;;;;;22.10;44.60;;;;;;3053966;19;5158;-23
2024/04/04 03:26:03;;;;;;;;;;;22.10;44.70;;;;;;3031237;19;4591;-25
2024/04/04 03:27:03;;;;;;;;;;;22.10;44.60;;;;;;3053765;19;4747;-23
2024/04/04 03:28:04;;;;;;;;;;;22.10;44.70;;;;;;3032184;19;4619;-23
2024/04/04 03:29:05;;;;;;;;;;;22.10;44.60;;;;;;3053779;19;4562;-25
2024/04/04 03:30:07;;;;;;;;;;;22.10;44.60;;;;;;3054184;19;4577;-23
2024/04/04 03:31:08;;;;;;;;;;;22.00;44.60;;;;;;3032445;19;4797;-23
2024/04/04 03:32:09;;;;;;;;;;;22.00;44.60;;;;;;3054193;19;4738;-24
2024/04/04 03:33:09;;;;;;;;;;;22.10;44.70;;;;;;3031897;19;4624;-25
2024/04/04 03:34:10;;;;;;;;;;;22.10;44.70;;;;;;3054579;19;1004;-23
2024/04/04 03:35:10;;;;;;;;;;;22.10;44.70;;;;;;3052721;19;4755;-24
2024/04/04 03:36:11;;;;;;;;;;;22.10;44.60;;;;;;3032456;19;4665;-25
2024/04/04 03:37:12;;;;;;;;;;;22.10;44.60;;;;;;3053634;19;4685;-23
2024/04/04 03:38:12;;;;;;;;;;;22.20;44.70;;;;;;3052497;19;4872;-24
2024/04/04 03:39:13;;;;;;;;;;;22.20;44.60;;;;;;3029827;19;4700;-23
2024/04/04 03:40:14;;;;;;;;;;;22.20;44.60;;;;;;3052937;19;4666;-23
2024/04/04 03:41:15;;;;;;;;;;;22.20;44.70;;;;;;3031569;19;4528;-24
2024/04/04 03:42:15;;;;;;;;;;;22.20;44.60;;;;;;3051641;19;1602;-25
2024/04/04 03:43:16;;;;;;;;;;;22.20;44.60;;;;;;3053639;19;4597;-23
2024/04/04 03:44:17;;;;;;;;;;;22.20;44.60;;;;;;3032233;19;4630;-25
2024/04/04 03:45:17;;;;;;;;;;;22.20;44.60;;;;;;3053674;19;4735;-24
2024/04/04 03:46:18;;;;;;;;;;;22.20;44.60;;;;;;3053625;19;4639;-24
2024/04/04 03:47:19;;;;;;;;;;;22.20;44.60;;;;;;3031878;19;4559;-23
2024/04/04 03:48:19;;;;;;;;;;;22.20;44.60;;;;;;3053810;19;4924;-23
2024/04/04 03:49:20;;;;;;;;;;;22.20;44.70;;;;;;3032142;19;4693;-23
2024/04/04 03:50:21;;;;;;;;;;;22.20;44.70;;;;;;3053366;19;4667;-24
2024/04/04 03:51:22;;;;;;;;;;;22.20;44.70;;;;;;3054320;19;4660;-23
2024/04/04 03:52:22;;;;;;;;;;;22.20;44.70;;;;;;3032082;19;4535;-25
2024/04/04 03:53:23;;;;;;;;;;;22.20;44.80;;;;;;3054163;19;4644;-23
2024/04/04 03:54:23;;;;;;;;;;;22.20;44.80;;;;;;3050389;19;4639;-24
2024/04/04 03:55:24;;;;;;;;;;;22.20;44.80;;;;;;3043052;19;4739;-24
2024/04/04 03:56:25;;;;;;;;;;;22.20;44.80;;;;;;3054042;19;4660;-23
2024/04/04 03:57:25;;;;;;;;;;;22.20;44.90;;;;;;3032855;19;4499;-25
2024/04/04 03:58:26;;;;;;;;;;;22.20;44.90;;;;;;3053198;19;4692;-24
2024/04/04 03:59:27;;;;;;;;;;;22.10;45.00;;;;;;3054403;19;4666;-23
2024/04/04 04:00:27;;;;;;;;;;;22.20;45.10;;;;;;3032093;19;4588;-23
2024/04/04 04:01:28;;;;;;;;;;;22.20;44.90;;;;;;3053623;19;4686;-24
2024/04/04 04:02:28;;;;;;;;;;;22.20;44.80;;;;;;3031506;19;4642;-24
2024/04/04 04:03:29;;;;;;;;;;;22.20;44.80;;;;;;3053672;19;4743;-23
2024/04/04 04:04:30;;;;;;;;;;;22.20;44.70;;;;;;3053101;19;4648;-23
2024/04/04 04:05:31;;;;;;;;;;;22.30;44.80;;;;;;3031897;19;4520;-31
2024/04/04 04:06:32;;;;;;;;;;;22.30;44.70;;;;;;3052265;19;4707;-30
2024/04/04 04:07:32;;;;;;;;;;;22.40;44.70;;;;;;3053298;19;4943;-32
2024/04/04 04:08:33;;;;;;;;;;;22.40;44.70;;;;;;3031558;19;4552;-34
2024/04/04 04:09:33;;;;;;;;;;;22.40;44.60;;;;;;3053169;19;4699;-31
2024/04/04 04:10:34;;;;;;;;;;;22.40;44.60;;;;;;3032007;19;4705;-33
2024/04/04 04:11:35;;;;;;;;;;;22.40;44.60;;;;;;3053535;19;4620;-34
2024/04/04 04:12:36;;;;;;;;;;;22.40;44.60;;;;;;3053393;19;4821;-33
2024/04/04 04:13:37;;;;;;;;;;;22.50;44.70;;;;;;3031492;19;4579;-34
2024/04/04 04:14:37;;;;;;;;;;;22.40;44.60;;;;;;3053493;19;4762;-35
2024/04/04 04:15:38;;;;;;;;;;;22.50;44.70;;;;;;3053918;19;4644;-36
2024/04/04 04:16:38;;;;;;;;;;;22.50;44.70;;;;;;3031846;19;4561;-32
2024/04/04 04:17:39;;;;;;;;;;;22.40;44.70;;;;;;3053674;19;4644;-31
2024/04/04 04:18:40;;;;;;;;;;;22.50;44.80;;;;;;3032132;19;4831;-33
2024/04/04 04:19:40;;;;;;;;;;;22.50;44.80;;;;;;3052908;19;4652;-33
2024/04/04 04:22:00;;;;;;;;;;;22.40;44.80;;;;;;3032017;19;4500;-34
2024/04/04 04:23:01;;;;;;;;;;;22.50;44.80;;;;;;3053089;19;4823;-32
2024/04/04 04:24:02;;;;;;;;;;;22.40;44.80;;;;;;3031909;19;4610;-33
2024/04/04 04:25:03;;;;;;;;;;;22.50;44.90;;;;;;3052759;19;4738;-24
2024/04/04 04:26:03;;;;;;;;;;;22.40;44.90;;;;;;3053538;19;4791;-24
2024/04/04 04:27:04;;;;;;;;;;;22.40;44.90;;;;;;3031517;19;4692;-23
2024/04/04 04:28:05;;;;;;;;;;;22.40;45.00;;;;;;3053121;19;4796;-24
2024/04/04 04:29:06;;;;;;;;;;;22.40;45.00;;;;;;3031105;19;5921;-24
2024/04/04 04:30:08;;;;;;;;;;;22.40;45.00;;;;;;3052921;19;992;-23
2024/04/04 04:31:31;;;;;;;;;;;22.40;45.10;;;;;;3052347;19;4667;-23
2024/04/04 04:32:32;;;;;;;;;;;22.40;45.00;;;;;;3032069;19;4545;-24
2024/04/04 04:33:33;;;;;;;;;;;22.40;45.00;;;;;;3053034;19;4770;-23
2024/04/04 04:34:33;;;;;;;;;;;22.50;45.10;;;;;;3031136;19;4789;-23
2024/04/04 04:35:34;;;;;;;;;;;22.50;45.10;;;;;;3052728;19;4751;-24
2024/04/04 04:37:03;;;;;;;;;;;22.50;45.20;;;;;;3052747;19;4617;-23
2024/04/04 04:38:03;;;;;;;;;;;22.40;45.10;;;;;;3030351;19;4553;-24
2024/04/04 04:39:04;;;;;;;;;;;22.40;45.10;;;;;;3052672;19;4736;-24
2024/04/04 04:40:05;;;;;;;;;;;22.40;45.70;;;;;;3031754;19;4675;-25
2024/04/04 04:41:06;;;;;;;;;;;22.40;45.10;;;;;;3052128;19;4672;-25
2024/04/04 04:42:07;;;;;;;;;;;22.40;45.20;;;;;;3052237;19;4717;-24
2024/04/04 04:43:08;;;;;;;;;;;22.40;45.20;;;;;;3031443;19;4524;-24
2024/04/04 04:44:09;;;;;;;;;;;22.30;45.30;;;;;;3051371;19;4711;-24
2024/04/04 04:45:10;;;;;;;;;;;22.40;45.40;;;;;;3030307;19;4512;-24
2024/04/04 04:46:12;;;;;;;;;;;22.30;45.30;;;;;;3052690;19;1080;-24
2024/04/04 04:47:12;;;;;;;;;;;22.30;45.50;;;;;;3051353;19;5045;-24
2024/04/04 04:48:13;;;;;;;;;;;22.30;45.40;;;;;;3031658;19;4604;-25
2024/04/04 04:49:13;;;;;;;;;;;22.40;45.50;;;;;;3052840;19;4677;-24
2024/04/04 04:50:14;;;;;;;;;;;22.30;45.60;;;;;;3051362;19;4793;-24
2024/04/04 04:51:15;;;;;;;;;;;22.30;45.70;;;;;;3031188;19;4568;-23
2024/04/04 04:52:17;;;;;;;;;;;22.30;45.60;;;;;;3052505;19;4711;-26
2024/04/04 04:53:17;;;;;;;;;;;22.30;45.70;;;;;;3031799;19;4554;-24
2024/04/04 04:54:18;;;;;;;;;;;22.30;45.80;;;;;;3053069;19;4601;-23
2024/04/04 04:55:19;;;;;;;;;;;22.20;46.30;;;;;;3052375;19;4671;-23
2024/04/04 04:56:19;;;;;;;;;;;22.20;45.70;;;;;;3031339;19;4698;-25
2024/04/04 04:57:20;;;;;;;;;;;22.20;45.70;;;;;;3053004;19;4706;-24
2024/04/04 04:58:21;;;;;;;;;;;22.20;45.80;;;;;;3053518;19;4589;-23
2024/04/04 04:59:21;;;;;;;;;;;22.20;45.80;;;;;;3030153;19;4646;-25
2024/04/04 05:00:22;;;;;;;;;;;22.20;46.50;;;;;;3052573;19;4804;-25
2024/04/04 05:01:24;;;;;;;;;;;22.20;46.00;;;;;;3031670;19;4857;-24
2024/04/04 05:02:24;;;;;;;;;;;22.20;46.00;;;;;;3052299;19;4652;-24
2024/04/04 05:03:25;;;;;;;;;;;22.20;46.00;;;;;;3052739;19;4675;-26
2024/04/04 05:04:26;;;;;;;;;;;22.10;46.00;;;;;;3031552;19;4462;-25
2024/04/04 05:05:26;;;;;;;;;;;22.20;46.00;;;;;;3052637;19;4709;-24
2024/04/04 05:06:28;;;;;;;;;;;22.20;45.90;;;;;;3031357;19;4640;-26
2024/04/04 05:07:29;;;;;;;;;;;22.30;45.90;;;;;;3052852;19;4636;-23
2024/04/04 05:08:30;;;;;;;;;;;22.30;45.80;;;;;;3052834;19;5241;-24
2024/04/04 05:09:30;;;;;;;;;;;22.30;46.50;;;;;;3030424;19;4517;-23
2024/04/04 05:10:31;;;;;;;;;;;22.40;46.00;;;;;;3052511;19;4686;-23
2024/04/04 05:11:31;;;;;;;;;;;22.40;46.00;;;;;;3053427;19;4827;-23
2024/04/04 05:12:32;;;;;;;;;;;22.40;45.90;;;;;;3031026;19;4707;-23
2024/04/04 05:13:33;;;;;;;;;;;22.40;45.90;;;;;;3053012;19;4783;-24
2024/04/04 05:14:34;;;;;;;;;;;22.40;45.90;;;;;;3032040;19;4660;-24
2024/04/04 05:16:07;;;;;;;;;;;22.50;45.90;;;;;;3052904;19;4646;-25
2024/04/04 05:17:08;;;;;;;;;;;22.50;45.90;;;;;;3029292;19;20809;-23
2024/04/04 05:18:08;;;;;;;;;;;22.50;45.80;;;;;;3052869;19;1124;-25
2024/04/04 05:19:09;;;;;;;;;;;22.50;45.80;;;;;;3052311;19;4573;-24
2024/04/04 05:20:11;;;;;;;;;;;22.50;45.80;;;;;;3031260;19;4502;-26
2024/04/04 05:21:11;;;;;;;;;;;22.50;45.80;;;;;;3052492;19;4857;-24
2024/04/04 05:22:12;;;;;;;;;;;22.50;45.90;;;;;;3052708;19;4774;-24
2024/04/04 05:23:13;;;;;;;;;;;22.50;45.90;;;;;;3030436;19;4762;-23
2024/04/04 05:24:13;;;;;;;;;;;22.50;45.90;;;;;;3052184;19;4684;-25
2024/04/04 05:25:14;;;;;;;;;;;22.50;45.90;;;;;;3029910;19;4680;-25
2024/04/04 05:26:15;;;;;;;;;;;22.50;45.90;;;;;;3051449;19;1166;-24
2024/04/04 05:27:15;;;;;;;;;;;22.50;45.90;;;;;;3051015;19;4731;-23
2024/04/04 05:28:16;;;;;;;;;;;22.50;46.00;;;;;;3031096;19;4544;-24
2024/04/04 05:29:17;;;;;;;;;;;22.50;46.00;;;;;;3049873;19;4845;-25
2024/04/04 05:30:17;;;;;;;;;;;22.40;45.90;;;;;;3049878;19;4673;-23
2024/04/04 05:31:18;;;;;;;;;;;22.40;45.90;;;;;;3029012;19;4785;-23
2024/04/04 05:32:19;;;;;;;;;;;22.40;46.00;;;;;;3051613;19;4675;-23
2024/04/04 05:33:19;;;;;;;;;;;22.40;46.00;;;;;;3030680;19;4577;-25
2024/04/04 05:34:22;;;;;;;;;;;22.40;46.00;;;;;;3051786;19;4654;-23
2024/04/04 05:35:22;;;;;;;;;;;22.40;46.10;;;;;;3049670;19;4652;-23
2024/04/04 05:36:23;;;;;;;;;;;22.40;46.10;;;;;;3030450;19;4615;-23
2024/04/04 05:37:24;;;;;;;;;;;22.30;46.20;;;;;;3052262;19;4710;-23
2024/04/04 05:38:25;;;;;;;;;;;22.30;46.30;;;;;;3033401;19;4642;-24
2024/04/04 05:39:25;;;;;;;;;;;22.40;46.30;;;;;;3051354;19;4685;-25
2024/04/04 05:40:26;;;;;;;;;;;22.30;46.40;;;;;;3052309;19;4638;-23
2024/04/04 05:41:26;;;;;;;;;;;22.30;46.40;;;;;;3029818;19;4585;-23
2024/04/04 05:42:28;;;;;;;;;;;22.30;46.50;;;;;;3051873;19;4664;-23
2024/04/04 05:43:29;;;;;;;;;;;22.30;46.50;;;;;;3051807;19;4675;-23
2024/04/04 05:44:29;;;;;;;;;;;22.20;46.50;;;;;;3029499;19;4564;-23
2024/04/04 05:45:30;;;;;;;;;;;22.20;46.50;;;;;;3050429;19;4694;-23
2024/04/04 05:46:31;;;;;;;;;;;22.30;46.60;;;;;;3030098;19;4643;-24
2024/04/04 05:47:31;;;;;;;;;;;22.20;46.60;;;;;;3050435;19;4685;-24
2024/04/04 05:48:32;;;;;;;;;;;22.20;46.70;;;;;;3049873;19;4675;-23
2024/04/04 05:49:33;;;;;;;;;;;22.20;46.80;;;;;;3029259;19;4559;-23
2024/04/04 05:50:36;;;;;;;;;;;22.20;46.80;;;;;;3049268;19;4736;-25
2024/04/04 05:51:37;;;;;;;;;;;22.30;46.70;;;;;;3050518;19;4764;-25
2024/04/04 05:52:37;;;;;;;;;;;22.30;46.70;;;;;;3029272;19;4562;-24
2024/04/04 05:53:38;;;;;;;;;;;22.30;46.60;;;;;;3051162;19;4672;-24
2024/04/04 05:54:39;;;;;;;;;;;22.40;46.50;;;;;;3028845;19;4639;-24
2024/04/04 05:55:41;;;;;;;;;;;22.40;46.40;;;;;;3049320;19;4864;-24
2024/04/04 05:56:42;;;;;;;;;;;22.50;46.60;;;;;;3049533;19;4688;-24
2024/04/04 05:57:44;;;;;;;;;;;22.50;46.50;;;;;;3029123;19;4712;-23
2024/04/04 05:58:45;;;;;;;;;;;22.50;46.40;;;;;;3051108;19;5191;-23
2024/04/04 05:59:45;;;;;;;;;;;22.50;46.30;;;;;;3029848;19;4714;-24
2024/04/04 06:00:46;;;;;;;;;;;22.50;46.30;;;;;;3049505;19;4665;-23
2024/04/04 06:01:47;;;;;;;;;;;22.60;46.40;;;;;;3050175;19;4725;-24